sensor_id;sensor_type;location;lat;lon;timestamp;pressure;altitude;pressure_sealevel;temperature;humidity
64025;BME280;50266;57.446;26.936;2022-09-09T00:00:37;100560.56;;;4.08;97.52
64025;BME280;50266;57.446;26.936;2022-09-09T00:01:47;100560.36;;;4.05;98.09
64025;BME280;50266;57.446;26.936;2022-09-09T00:02:42;100559.08;;;3.76;98.28
64025;BME280;50266;57.446;26.936;2022-09-09T00:03:46;100561.45;;;3.86;98.76
64025;BME280;50266;57.446;26.936;2022-09-09T00:04:45;100564.05;;;3.29;98.48
64025;BME280;50266;57.446;26.936;2022-09-09T00:05:53;100562.76;;;3.09;99.2
64025;BME280;50266;57.446;26.936;2022-09-09T00:07:52;100558.05;;;3.91;99.9
64025;BME280;50266;57.446;26.936;2022-09-09T00:09:02;100558.34;;;4.12;99.33
64025;BME280;50266;57.446;26.936;2022-09-09T00:10:00;100554.78;;;3.9;99.04
64025;BME280;50266;57.446;26.936;2022-09-09T00:11:00;100555.33;;;3.69;98.98
64025;BME280;50266;57.446;26.936;2022-09-09T00:13:21;100554.86;;;3.79;99.38
64025;BME280;50266;57.446;26.936;2022-09-09T00:14:03;100551.72;;;3.93;98.95
64025;BME280;50266;57.446;26.936;2022-09-09T00:15:13;100552.8;;;3.93;98.65
64025;BME280;50266;57.446;26.936;2022-09-09T00:16:11;100557.7;;;3.95;97.93
64025;BME280;50266;57.446;26.936;2022-09-09T00:17:18;100553.66;;;3.89;98.41
64025;BME280;50266;57.446;26.936;2022-09-09T00:18:22;100555.21;;;3.58;97.69
64025;BME280;50266;57.446;26.936;2022-09-09T00:20:16;100556.8;;;3.31;98.65
64025;BME280;50266;57.446;26.936;2022-09-09T00:21:16;100556.78;;;2.94;99.08
64025;BME280;50266;57.446;26.936;2022-09-09T00:22:19;100559.48;;;2.8;99.75
64025;BME280;50266;57.446;26.936;2022-09-09T00:23:32;100554.38;;;3.01;100.0
64025;BME280;50266;57.446;26.936;2022-09-09T00:27:30;100556.86;;;2.51;100.0
64025;BME280;50266;57.446;26.936;2022-09-09T00:28:28;100556.42;;;2.43;100.0
64025;BME280;50266;57.446;26.936;2022-09-09T00:29:45;100556.05;;;2.5;100.0
64025;BME280;50266;57.446;26.936;2022-09-09T00:30:31;100554.47;;;2.57;100.0
64025;BME280;50266;57.446;26.936;2022-09-09T00:31:29;100554.66;;;3.09;100.0
64025;BME280;50266;57.446;26.936;2022-09-09T00:32:29;100558.23;;;2.85;100.0
64025;BME280;50266;57.446;26.936;2022-09-09T00:33:28;100554.47;;;2.6;100.0
64025;BME280;50266;57.446;26.936;2022-09-09T00:34:28;100559.12;;;2.53;100.0
64025;BME280;50266;57.446;26.936;2022-09-09T00:35:29;100559.16;;;2.72;100.0
64025;BME280;50266;57.446;26.936;2022-09-09T00:36:28;100552.7;;;2.65;100.0
64025;BME280;50266;57.446;26.936;2022-09-09T00:37:28;100557.39;;;2.65;100.0
64025;BME280;50266;57.446;26.936;2022-09-09T00:39:34;100555.19;;;2.66;100.0
64025;BME280;50266;57.446;26.936;2022-09-09T00:40:34;100550.72;;;2.9;100.0
64025;BME280;50266;57.446;26.936;2022-09-09T00:42:40;100551.84;;;2.85;100.0
64025;BME280;50266;57.446;26.936;2022-09-09T00:43:38;100556.27;;;2.5;100.0
64025;BME280;50266;57.446;26.936;2022-09-09T00:44:37;100555.2;;;2.4;100.0
64025;BME280;50266;57.446;26.936;2022-09-09T00:47:53;100551.34;;;2.27;100.0
64025;BME280;50266;57.446;26.936;2022-09-09T00:50:00;100550.78;;;2.28;100.0
64025;BME280;50266;57.446;26.936;2022-09-09T00:50:57;100552.02;;;2.21;100.0
64025;BME280;50266;57.446;26.936;2022-09-09T00:52:03;100554.25;;;2.22;100.0
64025;BME280;50266;57.446;26.936;2022-09-09T00:54:14;100553.55;;;2.21;100.0
64025;BME280;50266;57.446;26.936;2022-09-09T00:55:15;100554.88;;;2.43;100.0
64025;BME280;50266;57.446;26.936;2022-09-09T00:56:14;100555.88;;;2.75;100.0
64025;BME280;50266;57.446;26.936;2022-09-09T00:57:23;100553.27;;;2.88;100.0
64025;BME280;50266;57.446;26.936;2022-09-09T00:58:16;100551.27;;;2.55;100.0
64025;BME280;50266;57.446;26.936;2022-09-09T00:59:24;100555.83;;;2.5;100.0
64025;BME280;50266;57.446;26.936;2022-09-09T01:01:23;100557.0;;;2.28;100.0
64025;BME280;50266;57.446;26.936;2022-09-09T01:03:38;100551.73;;;2.38;100.0
64025;BME280;50266;57.446;26.936;2022-09-09T01:04:32;100546.89;;;2.24;100.0
64025;BME280;50266;57.446;26.936;2022-09-09T01:05:39;100549.05;;;2.27;100.0
64025;BME280;50266;57.446;26.936;2022-09-09T01:06:35;100550.8;;;2.19;100.0
64025;BME280;50266;57.446;26.936;2022-09-09T01:07:34;100551.59;;;2.2;100.0
64025;BME280;50266;57.446;26.936;2022-09-09T01:09:43;100550.73;;;2.23;100.0
64025;BME280;50266;57.446;26.936;2022-09-09T01:10:54;100548.87;;;2.24;100.0
64025;BME280;50266;57.446;26.936;2022-09-09T01:11:43;100548.38;;;2.27;100.0
64025;BME280;50266;57.446;26.936;2022-09-09T01:12:43;100547.77;;;2.29;100.0
64025;BME280;50266;57.446;26.936;2022-09-09T01:13:43;100550.27;;;2.21;100.0
64025;BME280;50266;57.446;26.936;2022-09-09T01:14:49;100547.19;;;2.15;100.0
64025;BME280;50266;57.446;26.936;2022-09-09T01:15:48;100548.5;;;2.06;100.0
64025;BME280;50266;57.446;26.936;2022-09-09T01:16:48;100545.15;;;1.99;100.0
64025;BME280;50266;57.446;26.936;2022-09-09T01:18:06;100547.5;;;2.07;100.0
64025;BME280;50266;57.446;26.936;2022-09-09T01:18:51;100545.08;;;2.0;100.0
64025;BME280;50266;57.446;26.936;2022-09-09T01:19:54;100544.88;;;2.08;100.0
64025;BME280;50266;57.446;26.936;2022-09-09T01:22:01;100541.8;;;2.1;100.0
64025;BME280;50266;57.446;26.936;2022-09-09T01:23:13;100544.45;;;2.02;100.0
64025;BME280;50266;57.446;26.936;2022-09-09T01:24:12;100543.01;;;2.0;100.0
64025;BME280;50266;57.446;26.936;2022-09-09T01:25:12;100543.6;;;2.05;100.0
64025;BME280;50266;57.446;26.936;2022-09-09T01:26:13;100541.53;;;2.04;100.0
64025;BME280;50266;57.446;26.936;2022-09-09T01:27:06;100540.45;;;2.2;100.0
64025;BME280;50266;57.446;26.936;2022-09-09T01:28:08;100543.51;;;2.33;100.0
64025;BME280;50266;57.446;26.936;2022-09-09T01:29:07;100540.2;;;2.42;100.0
64025;BME280;50266;57.446;26.936;2022-09-09T01:30:10;100537.98;;;2.58;100.0
64025;BME280;50266;57.446;26.936;2022-09-09T01:31:07;100535.36;;;2.73;100.0
64025;BME280;50266;57.446;26.936;2022-09-09T01:33:13;100536.84;;;2.72;100.0
64025;BME280;50266;57.446;26.936;2022-09-09T01:34:13;100537.34;;;2.64;100.0
64025;BME280;50266;57.446;26.936;2022-09-09T01:36:21;100536.84;;;2.16;100.0
64025;BME280;50266;57.446;26.936;2022-09-09T01:37:20;100538.42;;;2.13;100.0
64025;BME280;50266;57.446;26.936;2022-09-09T01:38:20;100538.66;;;2.35;100.0
64025;BME280;50266;57.446;26.936;2022-09-09T01:39:20;100537.57;;;2.42;100.0
64025;BME280;50266;57.446;26.936;2022-09-09T01:40:20;100541.5;;;2.85;100.0
64025;BME280;50266;57.446;26.936;2022-09-09T01:41:20;100539.19;;;2.62;100.0
64025;BME280;50266;57.446;26.936;2022-09-09T01:42:20;100543.61;;;2.28;100.0
64025;BME280;50266;57.446;26.936;2022-09-09T01:43:21;100539.66;;;2.87;100.0
64025;BME280;50266;57.446;26.936;2022-09-09T01:44:20;100541.58;;;2.48;100.0
64025;BME280;50266;57.446;26.936;2022-09-09T01:45:20;100540.12;;;2.36;100.0
64025;BME280;50266;57.446;26.936;2022-09-09T01:46:21;100538.33;;;2.98;100.0
64025;BME280;50266;57.446;26.936;2022-09-09T01:47:20;100541.47;;;2.63;100.0
64025;BME280;50266;57.446;26.936;2022-09-09T01:48:21;100537.88;;;3.12;100.0
64025;BME280;50266;57.446;26.936;2022-09-09T01:49:20;100538.15;;;3.08;100.0
64025;BME280;50266;57.446;26.936;2022-09-09T01:50:20;100536.05;;;3.41;100.0
64025;BME280;50266;57.446;26.936;2022-09-09T01:51:20;100533.18;;;3.62;100.0
64025;BME280;50266;57.446;26.936;2022-09-09T01:52:20;100537.95;;;3.47;99.62
64025;BME280;50266;57.446;26.936;2022-09-09T01:53:21;100541.04;;;3.19;99.06
64025;BME280;50266;57.446;26.936;2022-09-09T01:54:21;100538.2;;;3.24;99.02
64025;BME280;50266;57.446;26.936;2022-09-09T01:55:23;100535.17;;;3.28;99.88
64025;BME280;50266;57.446;26.936;2022-09-09T01:57:31;100541.12;;;2.98;100.0
64025;BME280;50266;57.446;26.936;2022-09-09T01:59:50;100542.37;;;3.18;100.0
64025;BME280;50266;57.446;26.936;2022-09-09T02:00:34;100537.58;;;3.01;100.0
64025;BME280;50266;57.446;26.936;2022-09-09T02:03:43;100540.53;;;2.9;100.0
64025;BME280;50266;57.446;26.936;2022-09-09T02:04:47;100536.2;;;2.98;100.0
64025;BME280;50266;57.446;26.936;2022-09-09T02:05:53;100532.72;;;2.97;100.0
64025;BME280;50266;57.446;26.936;2022-09-09T02:06:44;100535.7;;;3.1;100.0
64025;BME280;50266;57.446;26.936;2022-09-09T02:07:47;100533.06;;;2.99;100.0
64025;BME280;50266;57.446;26.936;2022-09-09T02:08:45;100530.47;;;2.87;100.0
64025;BME280;50266;57.446;26.936;2022-09-09T02:09:44;100533.84;;;2.61;100.0
64025;BME280;50266;57.446;26.936;2022-09-09T02:10:53;100528.94;;;2.9;100.0
64025;BME280;50266;57.446;26.936;2022-09-09T02:11:46;100537.48;;;2.62;100.0
64025;BME280;50266;57.446;26.936;2022-09-09T02:12:51;100535.84;;;2.8;100.0
64025;BME280;50266;57.446;26.936;2022-09-09T02:13:53;100535.97;;;3.12;100.0
64025;BME280;50266;57.446;26.936;2022-09-09T02:14:54;100536.25;;;3.36;100.0
64025;BME280;50266;57.446;26.936;2022-09-09T02:16:57;100535.59;;;3.5;100.0
64025;BME280;50266;57.446;26.936;2022-09-09T02:17:56;100536.05;;;3.38;99.9
64025;BME280;50266;57.446;26.936;2022-09-09T02:20:00;100539.22;;;3.2;99.5
64025;BME280;50266;57.446;26.936;2022-09-09T02:20:58;100542.78;;;2.84;99.08
64025;BME280;50266;57.446;26.936;2022-09-09T02:21:59;100541.39;;;2.35;99.54
64025;BME280;50266;57.446;26.936;2022-09-09T02:22:58;100540.7;;;2.11;100.0
64025;BME280;50266;57.446;26.936;2022-09-09T02:23:59;100538.24;;;1.97;100.0
64025;BME280;50266;57.446;26.936;2022-09-09T02:24:58;100534.42;;;1.97;100.0
64025;BME280;50266;57.446;26.936;2022-09-09T02:25:58;100538.64;;;1.88;100.0
64025;BME280;50266;57.446;26.936;2022-09-09T02:26:58;100535.19;;;1.84;100.0
64025;BME280;50266;57.446;26.936;2022-09-09T02:27:58;100533.83;;;1.87;100.0
64025;BME280;50266;57.446;26.936;2022-09-09T02:28:58;100533.98;;;1.89;100.0
64025;BME280;50266;57.446;26.936;2022-09-09T02:29:59;100536.81;;;1.9;100.0
64025;BME280;50266;57.446;26.936;2022-09-09T02:30:58;100531.8;;;1.98;100.0
64025;BME280;50266;57.446;26.936;2022-09-09T02:32:00;100539.05;;;1.95;100.0
64025;BME280;50266;57.446;26.936;2022-09-09T02:32:58;100535.3;;;1.89;100.0
64025;BME280;50266;57.446;26.936;2022-09-09T02:33:59;100534.02;;;2.45;100.0
64025;BME280;50266;57.446;26.936;2022-09-09T02:36:03;100532.25;;;2.09;100.0
64025;BME280;50266;57.446;26.936;2022-09-09T02:37:03;100531.5;;;1.95;100.0
64025;BME280;50266;57.446;26.936;2022-09-09T02:38:04;100533.5;;;1.92;100.0
64025;BME280;50266;57.446;26.936;2022-09-09T02:39:02;100533.09;;;2.03;100.0
64025;BME280;50266;57.446;26.936;2022-09-09T02:40:06;100534.4;;;1.95;100.0
64025;BME280;50266;57.446;26.936;2022-09-09T02:41:03;100534.32;;;2.17;100.0
64025;BME280;50266;57.446;26.936;2022-09-09T02:42:04;100538.27;;;2.43;100.0
64025;BME280;50266;57.446;26.936;2022-09-09T02:43:03;100535.98;;;2.27;100.0
64025;BME280;50266;57.446;26.936;2022-09-09T02:45:06;100533.16;;;1.76;100.0
64025;BME280;50266;57.446;26.936;2022-09-09T02:48:14;100534.72;;;1.73;100.0
64025;BME280;50266;57.446;26.936;2022-09-09T02:50:17;100543.13;;;2.51;100.0
64025;BME280;50266;57.446;26.936;2022-09-09T02:51:20;100539.02;;;2.69;100.0
64025;BME280;50266;57.446;26.936;2022-09-09T02:52:20;100535.55;;;2.78;100.0
64025;BME280;50266;57.446;26.936;2022-09-09T02:53:20;100538.47;;;3.13;100.0
64025;BME280;50266;57.446;26.936;2022-09-09T02:54:28;100538.58;;;2.86;100.0
64025;BME280;50266;57.446;26.936;2022-09-09T02:56:25;100537.7;;;2.21;100.0
64025;BME280;50266;57.446;26.936;2022-09-09T02:57:28;100536.93;;;2.14;100.0
64025;BME280;50266;57.446;26.936;2022-09-09T02:58:26;100533.15;;;2.94;100.0
64025;BME280;50266;57.446;26.936;2022-09-09T02:59:26;100535.97;;;2.47;100.0
64025;BME280;50266;57.446;26.936;2022-09-09T03:00:26;100528.25;;;2.76;100.0
64025;BME280;50266;57.446;26.936;2022-09-09T03:01:26;100534.0;;;2.33;100.0
64025;BME280;50266;57.446;26.936;2022-09-09T03:02:26;100531.67;;;2.6;100.0
64025;BME280;50266;57.446;26.936;2022-09-09T03:03:26;100529.33;;;3.3;100.0
64025;BME280;50266;57.446;26.936;2022-09-09T03:04:26;100536.84;;;3.05;99.89
64025;BME280;50266;57.446;26.936;2022-09-09T03:05:26;100534.09;;;3.18;99.88
64025;BME280;50266;57.446;26.936;2022-09-09T03:06:26;100537.86;;;2.56;99.13
64025;BME280;50266;57.446;26.936;2022-09-09T03:07:26;100537.58;;;2.45;99.43
64025;BME280;50266;57.446;26.936;2022-09-09T03:08:26;100537.72;;;2.55;100.0
64025;BME280;50266;57.446;26.936;2022-09-09T03:09:26;100540.72;;;2.73;100.0
64025;BME280;50266;57.446;26.936;2022-09-09T03:10:26;100534.92;;;2.73;100.0
64025;BME280;50266;57.446;26.936;2022-09-09T03:11:26;100538.16;;;2.85;100.0
64025;BME280;50266;57.446;26.936;2022-09-09T03:12:26;100539.45;;;2.13;99.84
64025;BME280;50266;57.446;26.936;2022-09-09T03:13:26;100539.31;;;1.81;100.0
64025;BME280;50266;57.446;26.936;2022-09-09T03:14:26;100535.83;;;1.84;100.0
64025;BME280;50266;57.446;26.936;2022-09-09T03:15:26;100535.86;;;2.47;100.0
64025;BME280;50266;57.446;26.936;2022-09-09T03:16:26;100538.59;;;2.55;100.0
64025;BME280;50266;57.446;26.936;2022-09-09T03:17:26;100538.33;;;2.12;100.0
64025;BME280;50266;57.446;26.936;2022-09-09T03:18:26;100537.25;;;1.84;100.0
64025;BME280;50266;57.446;26.936;2022-09-09T03:19:26;100536.89;;;2.17;100.0
64025;BME280;50266;57.446;26.936;2022-09-09T03:20:27;100541.71;;;1.87;100.0
64025;BME280;50266;57.446;26.936;2022-09-09T03:21:26;100543.66;;;1.97;100.0
64025;BME280;50266;57.446;26.936;2022-09-09T03:22:26;100542.53;;;1.82;100.0
64025;BME280;50266;57.446;26.936;2022-09-09T03:23:27;100543.62;;;2.43;100.0
64025;BME280;50266;57.446;26.936;2022-09-09T03:24:27;100546.48;;;2.64;100.0
64025;BME280;50266;57.446;26.936;2022-09-09T03:25:27;100542.8;;;2.17;100.0
64025;BME280;50266;57.446;26.936;2022-09-09T03:26:27;100544.5;;;1.99;100.0
64025;BME280;50266;57.446;26.936;2022-09-09T03:27:27;100542.68;;;1.92;100.0
64025;BME280;50266;57.446;26.936;2022-09-09T03:28:27;100540.09;;;1.57;100.0
64025;BME280;50266;57.446;26.936;2022-09-09T03:29:27;100538.36;;;1.4;100.0
64025;BME280;50266;57.446;26.936;2022-09-09T03:30:27;100536.83;;;1.24;100.0
64025;BME280;50266;57.446;26.936;2022-09-09T03:31:27;100540.69;;;1.2;100.0
64025;BME280;50266;57.446;26.936;2022-09-09T03:32:27;100543.54;;;1.13;100.0
64025;BME280;50266;57.446;26.936;2022-09-09T03:33:27;100539.52;;;1.06;100.0
64025;BME280;50266;57.446;26.936;2022-09-09T03:34:27;100541.77;;;1.03;100.0
64025;BME280;50266;57.446;26.936;2022-09-09T03:35:27;100544.25;;;1.0;100.0
64025;BME280;50266;57.446;26.936;2022-09-09T03:36:27;100542.48;;;1.04;100.0
64025;BME280;50266;57.446;26.936;2022-09-09T03:37:27;100543.27;;;1.01;100.0
64025;BME280;50266;57.446;26.936;2022-09-09T03:38:27;100544.0;;;0.98;100.0
64025;BME280;50266;57.446;26.936;2022-09-09T03:39:27;100544.56;;;0.9;100.0
64025;BME280;50266;57.446;26.936;2022-09-09T03:40:27;100547.79;;;0.9;100.0
64025;BME280;50266;57.446;26.936;2022-09-09T03:41:27;100549.02;;;0.86;100.0
64025;BME280;50266;57.446;26.936;2022-09-09T03:42:27;100552.95;;;0.77;100.0
64025;BME280;50266;57.446;26.936;2022-09-09T03:43:27;100551.08;;;0.73;100.0
64025;BME280;50266;57.446;26.936;2022-09-09T03:44:27;100555.75;;;0.69;100.0
64025;BME280;50266;57.446;26.936;2022-09-09T03:45:27;100555.84;;;0.7;100.0
64025;BME280;50266;57.446;26.936;2022-09-09T03:46:27;100558.59;;;0.74;100.0
64025;BME280;50266;57.446;26.936;2022-09-09T03:47:27;100560.12;;;0.67;100.0
64025;BME280;50266;57.446;26.936;2022-09-09T03:48:27;100559.2;;;0.72;100.0
64025;BME280;50266;57.446;26.936;2022-09-09T03:49:27;100557.55;;;0.75;100.0
64025;BME280;50266;57.446;26.936;2022-09-09T03:50:27;100557.73;;;0.73;100.0
64025;BME280;50266;57.446;26.936;2022-09-09T03:51:27;100560.73;;;0.73;100.0
64025;BME280;50266;57.446;26.936;2022-09-09T03:52:27;100562.54;;;0.71;100.0
64025;BME280;50266;57.446;26.936;2022-09-09T03:53:27;100560.68;;;0.72;100.0
64025;BME280;50266;57.446;26.936;2022-09-09T03:54:27;100566.12;;;0.79;100.0
64025;BME280;50266;57.446;26.936;2022-09-09T03:55:27;100558.34;;;0.91;100.0
64025;BME280;50266;57.446;26.936;2022-09-09T03:56:27;100558.27;;;1.57;100.0
64025;BME280;50266;57.446;26.936;2022-09-09T03:57:27;100558.94;;;1.75;100.0
64025;BME280;50266;57.446;26.936;2022-09-09T03:58:27;100562.94;;;1.54;100.0
64025;BME280;50266;57.446;26.936;2022-09-09T03:59:27;100559.86;;;1.23;100.0
64025;BME280;50266;57.446;26.936;2022-09-09T04:00:27;100563.34;;;1.24;100.0
64025;BME280;50266;57.446;26.936;2022-09-09T04:01:27;100559.86;;;1.12;100.0
64025;BME280;50266;57.446;26.936;2022-09-09T04:02:27;100561.62;;;1.28;100.0
64025;BME280;50266;57.446;26.936;2022-09-09T04:03:27;100559.5;;;1.63;100.0
64025;BME280;50266;57.446;26.936;2022-09-09T04:04:27;100563.23;;;2.28;100.0
64025;BME280;50266;57.446;26.936;2022-09-09T04:05:27;100562.28;;;2.31;100.0
64025;BME280;50266;57.446;26.936;2022-09-09T04:06:27;100564.7;;;2.37;100.0
64025;BME280;50266;57.446;26.936;2022-09-09T04:07:27;100567.73;;;2.97;100.0
64025;BME280;50266;57.446;26.936;2022-09-09T04:08:27;100568.53;;;2.07;100.0
64025;BME280;50266;57.446;26.936;2022-09-09T04:09:27;100570.33;;;2.21;100.0
64025;BME280;50266;57.446;26.936;2022-09-09T04:10:27;100566.83;;;1.58;100.0
64025;BME280;50266;57.446;26.936;2022-09-09T04:11:27;100565.28;;;1.97;100.0
64025;BME280;50266;57.446;26.936;2022-09-09T04:12:27;100568.06;;;1.38;100.0
64025;BME280;50266;57.446;26.936;2022-09-09T04:13:27;100566.79;;;1.35;100.0
64025;BME280;50266;57.446;26.936;2022-09-09T04:14:27;100565.58;;;1.36;100.0
64025;BME280;50266;57.446;26.936;2022-09-09T04:15:27;100567.27;;;1.36;100.0
64025;BME280;50266;57.446;26.936;2022-09-09T04:16:27;100559.84;;;1.37;100.0
64025;BME280;50266;57.446;26.936;2022-09-09T04:17:27;100565.34;;;1.38;100.0
64025;BME280;50266;57.446;26.936;2022-09-09T04:18:27;100566.48;;;1.43;100.0
64025;BME280;50266;57.446;26.936;2022-09-09T04:19:27;100563.04;;;1.5;100.0
64025;BME280;50266;57.446;26.936;2022-09-09T04:20:27;100564.33;;;1.45;100.0
64025;BME280;50266;57.446;26.936;2022-09-09T04:21:27;100562.86;;;1.46;100.0
64025;BME280;50266;57.446;26.936;2022-09-09T04:22:27;100561.34;;;1.46;100.0
64025;BME280;50266;57.446;26.936;2022-09-09T04:23:28;100563.25;;;1.46;100.0
64025;BME280;50266;57.446;26.936;2022-09-09T04:24:27;100565.67;;;1.53;100.0
64025;BME280;50266;57.446;26.936;2022-09-09T04:25:27;100565.12;;;1.58;100.0
64025;BME280;50266;57.446;26.936;2022-09-09T04:26:28;100567.32;;;1.62;100.0
64025;BME280;50266;57.446;26.936;2022-09-09T04:27:28;100570.73;;;1.67;100.0
64025;BME280;50266;57.446;26.936;2022-09-09T04:28:29;100570.66;;;1.67;100.0
64025;BME280;50266;57.446;26.936;2022-09-09T04:29:28;100568.17;;;1.7;100.0
64025;BME280;50266;57.446;26.936;2022-09-09T04:30:28;100569.8;;;1.94;100.0
64025;BME280;50266;57.446;26.936;2022-09-09T04:31:28;100573.42;;;1.93;100.0
64025;BME280;50266;57.446;26.936;2022-09-09T04:32:28;100567.39;;;1.9;100.0
64025;BME280;50266;57.446;26.936;2022-09-09T04:33:28;100569.55;;;2.67;100.0
64025;BME280;50266;57.446;26.936;2022-09-09T04:34:28;100566.52;;;2.39;100.0
64025;BME280;50266;57.446;26.936;2022-09-09T04:35:28;100571.98;;;2.55;100.0
64025;BME280;50266;57.446;26.936;2022-09-09T04:36:28;100565.21;;;2.32;100.0
64025;BME280;50266;57.446;26.936;2022-09-09T04:37:28;100569.33;;;2.46;100.0
64025;BME280;50266;57.446;26.936;2022-09-09T04:38:28;100563.39;;;2.45;100.0
64025;BME280;50266;57.446;26.936;2022-09-09T04:39:28;100566.33;;;2.57;100.0
64025;BME280;50266;57.446;26.936;2022-09-09T04:40:28;100563.88;;;2.67;100.0
64025;BME280;50266;57.446;26.936;2022-09-09T04:41:28;100568.2;;;2.77;100.0
64025;BME280;50266;57.446;26.936;2022-09-09T04:42:28;100564.4;;;2.93;100.0
64025;BME280;50266;57.446;26.936;2022-09-09T04:43:28;100564.25;;;2.99;100.0
64025;BME280;50266;57.446;26.936;2022-09-09T04:44:28;100564.77;;;3.29;100.0
64025;BME280;50266;57.446;26.936;2022-09-09T04:45:28;100564.67;;;3.52;100.0
64025;BME280;50266;57.446;26.936;2022-09-09T04:46:28;100565.4;;;3.46;100.0
64025;BME280;50266;57.446;26.936;2022-09-09T04:47:28;100563.39;;;3.62;99.88
64025;BME280;50266;57.446;26.936;2022-09-09T04:48:28;100562.18;;;3.68;99.44
64025;BME280;50266;57.446;26.936;2022-09-09T04:49:28;100564.98;;;3.88;99.22
64025;BME280;50266;57.446;26.936;2022-09-09T04:50:28;100564.15;;;3.99;98.64
64025;BME280;50266;57.446;26.936;2022-09-09T04:51:28;100564.17;;;4.03;98.03
64025;BME280;50266;57.446;26.936;2022-09-09T04:52:28;100568.45;;;4.16;97.64
64025;BME280;50266;57.446;26.936;2022-09-09T04:53:28;100567.05;;;4.18;97.37
64025;BME280;50266;57.446;26.936;2022-09-09T04:54:28;100566.06;;;4.28;97.05
64025;BME280;50266;57.446;26.936;2022-09-09T04:55:29;100566.01;;;4.25;96.82
64025;BME280;50266;57.446;26.936;2022-09-09T04:56:28;100568.7;;;4.47;96.64
64025;BME280;50266;57.446;26.936;2022-09-09T04:57:28;100569.84;;;4.52;95.96
64025;BME280;50266;57.446;26.936;2022-09-09T04:58:28;100569.41;;;4.64;95.37
64025;BME280;50266;57.446;26.936;2022-09-09T04:59:28;100564.78;;;4.61;95.43
64025;BME280;50266;57.446;26.936;2022-09-09T05:00:28;100568.11;;;4.66;95.12
64025;BME280;50266;57.446;26.936;2022-09-09T05:01:28;100569.83;;;4.74;95.06
64025;BME280;50266;57.446;26.936;2022-09-09T05:02:28;100568.48;;;4.76;94.81
64025;BME280;50266;57.446;26.936;2022-09-09T05:03:28;100572.04;;;4.81;94.68
64025;BME280;50266;57.446;26.936;2022-09-09T05:04:28;100567.61;;;4.89;94.46
64025;BME280;50266;57.446;26.936;2022-09-09T05:05:28;100567.41;;;4.93;94.11
64025;BME280;50266;57.446;26.936;2022-09-09T05:06:28;100568.91;;;5.08;93.92
64025;BME280;50266;57.446;26.936;2022-09-09T05:07:28;100566.17;;;5.16;93.43
64025;BME280;50266;57.446;26.936;2022-09-09T05:08:28;100570.55;;;5.24;93.29
64025;BME280;50266;57.446;26.936;2022-09-09T05:09:28;100572.05;;;5.29;93.02
64025;BME280;50266;57.446;26.936;2022-09-09T05:10:28;100564.5;;;5.3;92.82
64025;BME280;50266;57.446;26.936;2022-09-09T05:11:29;100566.12;;;5.48;92.33
64025;BME280;50266;57.446;26.936;2022-09-09T05:12:28;100567.79;;;5.57;92.11
64025;BME280;50266;57.446;26.936;2022-09-09T05:13:28;100572.47;;;5.62;91.61
64025;BME280;50266;57.446;26.936;2022-09-09T05:14:28;100570.34;;;5.71;91.36
64025;BME280;50266;57.446;26.936;2022-09-09T05:15:28;100572.56;;;5.72;91.14
64025;BME280;50266;57.446;26.936;2022-09-09T05:16:28;100571.73;;;5.76;91.1
64025;BME280;50266;57.446;26.936;2022-09-09T05:17:28;100572.02;;;5.82;90.77
64025;BME280;50266;57.446;26.936;2022-09-09T05:18:28;100569.2;;;5.93;90.42
64025;BME280;50266;57.446;26.936;2022-09-09T05:19:28;100572.71;;;5.92;90.23
64025;BME280;50266;57.446;26.936;2022-09-09T05:20:28;100572.59;;;5.9;90.1
64025;BME280;50266;57.446;26.936;2022-09-09T05:21:28;100573.54;;;5.99;89.86
64025;BME280;50266;57.446;26.936;2022-09-09T05:22:28;100575.38;;;6.03;89.51
64025;BME280;50266;57.446;26.936;2022-09-09T05:23:28;100573.46;;;6.08;89.27
64025;BME280;50266;57.446;26.936;2022-09-09T05:24:28;100573.12;;;6.1;89.09
64025;BME280;50266;57.446;26.936;2022-09-09T05:25:28;100577.25;;;6.15;88.51
64025;BME280;50266;57.446;26.936;2022-09-09T05:26:28;100574.47;;;6.14;88.23
64025;BME280;50266;57.446;26.936;2022-09-09T05:27:28;100576.8;;;6.26;88.17
64025;BME280;50266;57.446;26.936;2022-09-09T05:28:29;100574.89;;;6.32;88.14
64025;BME280;50266;57.446;26.936;2022-09-09T05:29:29;100575.67;;;6.28;87.62
64025;BME280;50266;57.446;26.936;2022-09-09T05:30:29;100575.43;;;6.27;87.34
64025;BME280;50266;57.446;26.936;2022-09-09T05:31:29;100578.5;;;6.27;87.49
64025;BME280;50266;57.446;26.936;2022-09-09T05:32:29;100580.34;;;6.37;87.04
64025;BME280;50266;57.446;26.936;2022-09-09T05:33:29;100582.86;;;6.43;86.88
64025;BME280;50266;57.446;26.936;2022-09-09T05:34:29;100585.41;;;6.42;87.47
64025;BME280;50266;57.446;26.936;2022-09-09T05:35:29;100587.04;;;6.45;87.67
64025;BME280;50266;57.446;26.936;2022-09-09T05:36:29;100586.6;;;6.47;87.59
64025;BME280;50266;57.446;26.936;2022-09-09T05:37:30;100587.55;;;6.57;86.98
64025;BME280;50266;57.446;26.936;2022-09-09T05:38:29;100588.95;;;6.65;87.04
64025;BME280;50266;57.446;26.936;2022-09-09T05:39:29;100591.44;;;6.63;86.68
64025;BME280;50266;57.446;26.936;2022-09-09T05:40:29;100591.23;;;6.7;86.2
64025;BME280;50266;57.446;26.936;2022-09-09T05:41:29;100594.2;;;6.7;86.43
64025;BME280;50266;57.446;26.936;2022-09-09T05:42:29;100592.91;;;6.69;86.44
64025;BME280;50266;57.446;26.936;2022-09-09T05:43:29;100591.19;;;6.73;86.45
64025;BME280;50266;57.446;26.936;2022-09-09T05:44:29;100592.51;;;6.82;86.29
64025;BME280;50266;57.446;26.936;2022-09-09T05:45:29;100592.17;;;6.75;86.04
64025;BME280;50266;57.446;26.936;2022-09-09T05:46:29;100592.39;;;6.86;85.5
64025;BME280;50266;57.446;26.936;2022-09-09T05:47:29;100590.75;;;6.87;85.49
64025;BME280;50266;57.446;26.936;2022-09-09T05:48:29;100586.59;;;6.84;84.71